Baiyin, China
Current Conditions -  °F | °C
As of 12:00 PM on Monday 22 Dec 2014 (Local Time) from ZLLL Reporting Station
Clear Clear  
Wind Chill: 25°   Ceiling: Unl
Heat Index: 25°   Visibility: 4mi
Dew Point:   Wind: 0mph
Humidity: 46%   Direction: NA
Pressure: 30.06"   Gusts: NA
Location:  36.53°N, 104.2°E
Report Text: ZLLL 220400Z 00000MPS 6000 NSC M04/M14 Q1018 NOSIG
Loading
Personal Weather Stations






























Interactive Weather Map New forecast layout! Learn more

10-Day Weather Forecast

Advertisements
Track Severe Weather on mobile